Time;durP1;ratioP1;P1;durP2;ratioP2;P2;SDS_P1;SDS_P2;PMS_P1;PMS_P2;Temp;Humidity;BMP_temperature;BMP_pressure;BME280_temperature;BME280_humidity;BME280_pressure;Samples;Min_cycle;Max_cycle;Signal;HPM_P1;HPM_P2
2023/11/28 00:01:43;;;;;;;2.63;1.93;;;19.80;56.60;;;;;;4972088;28;20421;-68
2023/11/28 00:04:08;;;;;;;3.30;2.10;;;19.80;56.60;;;;;;4971905;28;20170;-68
2023/11/28 00:06:35;;;;;;;3.17;2.00;;;19.80;57.10;;;;;;4972068;28;20195;-67
2023/11/28 00:09:00;;;;;;;3.20;1.90;;;19.80;56.60;;;;;;4972011;28;21046;-66
2023/11/28 00:11:26;;;;;;;2.57;1.93;;;19.80;56.60;;;;;;4971866;28;20544;-67
2023/11/28 00:13:52;;;;;;;3.77;2.30;;;19.80;56.60;;;;;;4971847;28;20260;-67
2023/11/28 00:16:18;;;;;;;3.57;2.10;;;19.80;56.60;;;;;;4972155;28;20239;-67
2023/11/28 00:18:44;;;;;;;3.63;2.00;;;19.80;56.60;;;;;;4971792;28;20276;-67
2023/11/28 00:21:11;;;;;;;4.70;2.10;;;19.80;56.60;;;;;;4971853;28;20548;-68
2023/11/28 00:23:37;;;;;;;3.17;2.10;;;19.80;56.60;;;;;;4971786;28;20186;-68
2023/11/28 00:26:02;;;;;;;2.40;1.83;;;19.80;57.20;;;;;;4971678;28;20453;-67
2023/11/28 00:28:28;;;;;;;2.93;2.07;;;19.80;56.60;;;;;;4971668;28;20189;-67
2023/11/28 00:30:54;;;;;;;3.57;2.10;;;19.80;56.60;;;;;;4971602;28;20213;-68
2023/11/28 00:33:20;;;;;;;2.20;2.00;;;19.80;56.60;;;;;;4971661;28;20174;-67
2023/11/28 00:35:46;;;;;;;3.90;2.17;;;19.70;56.60;;;;;;4971481;28;20201;-68
2023/11/28 00:38:12;;;;;;;2.80;2.13;;;19.80;56.70;;;;;;4971731;28;20908;-67
2023/11/28 00:40:40;;;;;;;3.20;2.37;;;19.70;56.60;;;;;;4971212;28;20409;-68
2023/11/28 00:43:06;;;;;;;2.73;2.17;;;19.70;56.60;;;;;;4969817;28;20479;-67
2023/11/28 00:45:31;;;;;;;3.47;2.03;;;19.70;56.60;;;;;;4971431;28;20429;-67
2023/11/28 00:47:57;;;;;;;2.83;2.30;;;19.70;56.60;;;;;;4971466;28;20181;-68
2023/11/28 00:50:23;;;;;;;2.17;1.77;;;19.70;56.60;;;;;;4971322;28;20582;-68
2023/11/28 00:52:49;;;;;;;3.30;2.20;;;19.70;56.60;;;;;;4971491;28;20174;-67
2023/11/28 00:55:16;;;;;;;3.53;2.03;;;19.80;56.70;;;;;;4971556;28;20618;-67
2023/11/28 00:57:43;;;;;;;3.17;1.97;;;19.70;56.60;;;;;;4971429;28;20463;-66
2023/11/28 01:00:09;;;;;;;3.30;2.33;;;19.70;56.60;;;;;;4971292;28;20425;-67
2023/11/28 01:02:35;;;;;;;4.23;2.20;;;19.70;56.60;;;;;;4971250;28;20938;-67
2023/11/28 01:05:01;;;;;;;3.50;1.80;;;19.70;56.70;;;;;;4971270;28;20512;-67
2023/11/28 01:07:27;;;;;;;2.20;2.00;;;19.70;56.70;;;;;;4971383;28;20476;-67
2023/11/28 01:09:52;;;;;;;3.00;2.10;;;19.70;56.60;;;;;;4971175;28;20181;-68
2023/11/28 01:12:19;;;;;;;3.20;1.73;;;19.70;56.60;;;;;;4971284;28;20170;-68
2023/11/28 01:14:45;;;;;;;2.73;2.13;;;19.70;56.60;;;;;;4971741;28;20293;-67
2023/11/28 01:17:11;;;;;;;2.67;1.90;;;19.70;56.70;;;;;;4971218;28;20504;-67
2023/11/28 01:19:38;;;;;;;2.50;1.90;;;19.70;56.70;;;;;;4969860;28;20184;-67
2023/11/28 01:22:04;;;;;;;2.70;2.10;;;19.70;56.70;;;;;;4971191;28;20647;-67
2023/11/28 01:24:30;;;;;;;3.00;1.80;;;19.70;56.70;;;;;;4971162;28;20433;-68
2023/11/28 01:26:55;;;;;;;2.53;1.93;;;19.70;56.70;;;;;;4971072;28;20499;-67
2023/11/28 01:29:21;;;;;;;2.57;2.00;;;19.70;56.70;;;;;;4971134;28;20177;-67
2023/11/28 01:31:47;;;;;;;3.70;2.00;;;19.70;56.70;;;;;;4970999;28;20193;-67
2023/11/28 01:34:13;;;;;;;2.10;1.50;;;19.70;56.70;;;;;;4971069;28;20201;-68
2023/11/28 01:36:40;;;;;;;3.30;2.10;;;19.70;56.70;;;;;;4971097;28;20632;-68
2023/11/28 01:39:07;;;;;;;2.23;1.60;;;19.70;56.70;;;;;;4970954;28;20934;-68
2023/11/28 01:41:36;;;;;;;2.50;1.67;;;19.70;56.70;;;;;;4970980;28;20471;-67
2023/11/28 01:44:03;;;;;;;3.20;1.80;;;19.70;56.70;;;;;;4970961;28;20880;-68
2023/11/28 01:46:30;;;;;;;2.93;2.00;;;19.70;56.70;;;;;;4971022;28;20500;-67
2023/11/28 01:48:56;;;;;;;5.63;2.03;;;19.70;56.70;;;;;;4970805;28;20417;-68
2023/11/28 01:51:22;;;;;;;3.00;1.57;;;19.70;56.70;;;;;;4970890;28;20842;-67
2023/11/28 01:53:49;;;;;;;2.23;1.80;;;19.70;56.80;;;;;;4973833;28;20778;-67
2023/11/28 01:56:15;;;;;;;3.23;2.10;;;19.70;56.70;;;;;;4974443;28;20419;-67
2023/11/28 01:58:41;;;;;;;2.03;1.80;;;19.70;56.70;;;;;;4974343;28;20783;-67
2023/11/28 02:01:07;;;;;;;2.90;2.07;;;19.70;56.70;;;;;;4973066;28;20432;-67
2023/11/28 02:03:35;;;;;;;3.10;2.23;;;19.70;56.70;;;;;;4974293;28;20805;-67
2023/11/28 02:06:01;;;;;;;2.30;1.53;;;19.70;56.70;;;;;;4974258;28;20872;-67
2023/11/28 02:08:27;;;;;;;2.30;1.90;;;19.70;56.80;;;;;;4974441;28;20460;-67
2023/11/28 02:10:52;;;;;;;2.23;1.67;;;19.70;56.70;;;;;;4974079;28;20464;-67
2023/11/28 02:13:19;;;;;;;1.97;1.63;;;19.70;56.70;;;;;;4974165;28;20232;-67
2023/11/28 02:15:46;;;;;;;3.50;1.93;;;19.70;56.80;;;;;;4973972;28;20193;-68
2023/11/28 02:18:12;;;;;;;2.27;1.93;;;19.60;56.70;;;;;;4974086;28;20779;-67
2023/11/28 02:20:39;;;;;;;4.30;1.97;;;19.70;56.70;;;;;;4974021;28;20416;-66
2023/11/28 02:23:05;;;;;;;2.27;1.80;;;19.70;56.70;;;;;;4973905;28;20516;-68
2023/11/28 02:25:41;;;;;;;2.10;1.70;;;19.70;56.80;;;;;;4973786;28;20471;-68
2023/11/28 02:28:06;;;;;;;1.90;1.60;;;19.70;56.80;;;;;;4973652;28;21230;-67
2023/11/28 02:30:32;;;;;;;2.80;1.70;;;19.60;56.70;;;;;;4972408;28;20529;-67
2023/11/28 02:32:58;;;;;;;2.53;1.90;;;19.60;56.70;;;;;;4974135;28;20653;-67
2023/11/28 02:35:23;;;;;;;2.77;1.40;;;19.70;56.80;;;;;;4973865;28;20761;-67
2023/11/28 02:37:49;;;;;;;3.20;1.67;;;19.60;56.70;;;;;;4973745;28;20182;-67
2023/11/28 02:40:14;;;;;;;2.83;2.20;;;19.60;56.70;;;;;;4973665;28;20660;-68
2023/11/28 02:42:40;;;;;;;3.20;1.70;;;19.60;56.70;;;;;;4972317;28;20185;-67
2023/11/28 02:45:06;;;;;;;2.07;1.70;;;19.60;56.70;;;;;;4973321;28;20190;-67
2023/11/28 02:47:32;;;;;;;2.03;1.63;;;19.60;56.70;;;;;;4972225;28;20186;-68
2023/11/28 02:49:57;;;;;;;1.93;1.50;;;19.60;56.70;;;;;;4973423;28;20454;-67
2023/11/28 02:52:23;;;;;;;2.60;1.70;;;19.60;56.70;;;;;;4973369;28;20575;-67
2023/11/28 02:54:48;;;;;;;2.90;2.07;;;19.60;56.70;;;;;;4973653;28;20212;-67
2023/11/28 02:57:14;;;;;;;2.73;1.57;;;19.60;56.70;;;;;;4973274;28;20206;-67
2023/11/28 02:59:39;;;;;;;2.40;1.70;;;19.60;56.70;;;;;;4973345;28;20653;-68
2023/11/28 03:02:05;;;;;;;2.10;1.77;;;19.60;56.70;;;;;;4973212;28;20209;-67
2023/11/28 03:04:31;;;;;;;2.20;1.70;;;19.60;56.70;;;;;;4972472;28;20194;-67
2023/11/28 03:06:57;;;;;;;1.87;1.50;;;19.60;56.70;;;;;;4973111;28;20212;-68
2023/11/28 03:09:22;;;;;;;3.00;1.90;;;19.60;56.70;;;;;;4973134;28;20593;-68
2023/11/28 03:11:48;;;;;;;3.20;2.20;;;19.60;56.70;;;;;;4973236;28;20452;-67
2023/11/28 03:14:13;;;;;;;2.50;1.50;;;19.60;56.70;;;;;;4972925;28;20691;-67
2023/11/28 03:16:39;;;;;;;2.47;1.90;;;19.60;56.70;;;;;;4973253;28;20174;-67
2023/11/28 03:19:05;;;;;;;2.13;1.47;;;19.60;56.70;;;;;;4972906;28;20170;-68
2023/11/28 03:21:30;;;;;;;2.50;1.57;;;19.60;56.70;;;;;;4972924;28;20188;-68
2023/11/28 03:23:56;;;;;;;2.63;1.60;;;19.60;56.70;;;;;;4972832;28;20260;-68
2023/11/28 03:26:21;;;;;;;1.80;1.30;;;19.60;56.70;;;;;;4972698;28;20651;-67
2023/11/28 03:28:47;;;;;;;2.97;2.30;;;19.60;56.80;;;;;;4971394;28;20177;-67
2023/11/28 03:31:13;;;;;;;2.70;2.13;;;19.60;56.70;;;;;;4972644;28;20559;-67
2023/11/28 03:33:38;;;;;;;2.30;1.63;;;19.60;56.70;;;;;;4972605;28;20177;-67
2023/11/28 03:36:04;;;;;;;1.97;1.40;;;19.60;56.70;;;;;;4972468;28;20275;-67
2023/11/28 03:38:30;;;;;;;2.70;2.00;;;19.60;56.70;;;;;;4972520;28;20170;-67
2023/11/28 03:40:55;;;;;;;2.33;1.93;;;19.60;56.70;;;;;;4972544;28;20174;-67
2023/11/28 03:43:21;;;;;;;3.83;1.83;;;19.60;56.70;;;;;;4972423;28;20323;-68
2023/11/28 03:45:46;;;;;;;2.13;1.47;;;19.60;56.70;;;;;;4972268;28;20288;-68
2023/11/28 03:48:12;;;;;;;2.00;1.50;;;19.60;56.70;;;;;;4972323;28;20235;-68
2023/11/28 03:50:38;;;;;;;2.30;2.03;;;19.60;56.70;;;;;;4972312;28;20194;-67
2023/11/28 03:53:03;;;;;;;1.83;1.50;;;19.60;56.70;;;;;;4972287;28;20177;-68
2023/11/28 03:55:29;;;;;;;2.80;2.30;;;19.60;56.70;;;;;;4972409;28;20579;-68
2023/11/28 03:57:54;;;;;;;2.20;1.70;;;19.60;56.70;;;;;;4972157;28;20178;-68
2023/11/28 04:00:20;;;;;;;2.47;1.60;;;19.60;56.70;;;;;;4972128;28;20184;-67
2023/11/28 04:02:46;;;;;;;2.70;1.40;;;19.60;56.70;;;;;;4972309;28;20216;-67
2023/11/28 04:05:12;;;;;;;1.60;1.50;;;19.60;56.70;;;;;;4971916;28;20699;-68
2023/11/28 04:07:38;;;;;;;2.13;1.60;;;19.60;56.70;;;;;;4972010;28;20255;-67
2023/11/28 04:10:03;;;;;;;2.40;1.73;;;19.60;56.70;;;;;;4971837;28;20413;-67
2023/11/28 04:12:29;;;;;;;1.57;1.23;;;19.60;56.70;;;;;;4971895;28;20184;-67
2023/11/28 04:14:55;;;;;;;2.47;1.73;;;19.60;56.70;;;;;;4971804;28;20540;-67
2023/11/28 04:17:20;;;;;;;2.00;1.50;;;19.60;56.70;;;;;;4970896;28;20162;-68
2023/11/28 04:19:46;;;;;;;2.33;1.47;;;19.60;57.30;;;;;;4971795;28;20552;-67
2023/11/28 04:22:11;;;;;;;3.07;1.60;;;19.60;56.70;;;;;;4971783;28;20180;-67
2023/11/28 04:24:37;;;;;;;2.20;1.73;;;19.60;56.70;;;;;;4971635;28;20197;-68
2023/11/28 04:27:04;;;;;;;1.70;1.47;;;19.60;56.70;;;;;;4971541;28;20200;-68
2023/11/28 04:29:30;;;;;;;2.07;1.50;;;19.60;56.70;;;;;;4971630;28;20252;-67
2023/11/28 04:31:55;;;;;;;1.63;1.40;;;19.60;56.70;;;;;;4971535;28;20547;-67
2023/11/28 04:34:21;;;;;;;2.07;1.40;;;19.60;56.70;;;;;;4971783;28;20566;-67
2023/11/28 04:36:46;;;;;;;2.27;1.43;;;19.60;56.70;;;;;;4971578;28;20185;-67
2023/11/28 04:39:12;;;;;;;1.67;1.33;;;19.60;56.70;;;;;;4971543;28;20177;-67
2023/11/28 04:41:38;;;;;;;1.70;1.53;;;19.60;56.70;;;;;;4971556;28;20204;-68
2023/11/28 04:44:04;;;;;;;1.60;1.50;;;19.60;56.70;;;;;;4971732;28;20189;-67
2023/11/28 04:46:30;;;;;;;1.30;1.00;;;19.60;57.20;;;;;;4971467;28;20471;-67
2023/11/28 04:48:55;;;;;;;1.67;1.30;;;19.60;56.70;;;;;;4971388;28;20181;-68
2023/11/28 04:51:21;;;;;;;2.07;1.40;;;19.60;56.70;;;;;;4971549;28;20212;-68
2023/11/28 04:53:46;;;;;;;2.10;1.57;;;19.60;56.70;;;;;;4971363;28;20645;-67
2023/11/28 04:56:12;;;;;;;2.07;1.37;;;19.60;56.70;;;;;;4971189;28;20248;-68
2023/11/28 04:58:37;;;;;;;2.67;1.90;;;19.60;56.70;;;;;;4971614;28;20181;-67
2023/11/28 05:01:04;;;;;;;1.73;1.60;;;19.60;56.70;;;;;;4971305;28;20593;-67
2023/11/28 05:03:30;;;;;;;1.53;1.43;;;19.60;56.70;;;;;;4971298;28;20177;-68
2023/11/28 05:05:55;;;;;;;2.20;1.43;;;19.60;56.70;;;;;;4971231;28;20919;-67
2023/11/28 05:08:21;;;;;;;2.30;1.33;;;19.50;56.70;;;;;;4971278;28;20213;-68
2023/11/28 05:10:46;;;;;;;2.40;1.70;;;19.50;56.60;;;;;;4971136;28;20213;-68
2023/11/28 05:13:12;;;;;;;2.07;1.80;;;19.50;56.60;;;;;;4971200;28;20178;-67
2023/11/28 05:15:38;;;;;;;1.53;1.27;;;19.50;56.70;;;;;;4970989;28;20201;-67
2023/11/28 05:18:03;;;;;;;1.63;1.30;;;19.50;56.70;;;;;;4971469;28;20186;-67
2023/11/28 05:20:29;;;;;;;2.80;1.57;;;19.50;56.70;;;;;;4971413;28;20185;-67
2023/11/28 05:22:56;;;;;;;1.90;1.60;;;19.50;56.70;;;;;;4971061;28;20186;-67
2023/11/28 05:25:21;;;;;;;1.67;1.27;;;19.50;56.70;;;;;;4970958;28;20910;-67
2023/11/28 05:27:47;;;;;;;2.47;1.53;;;19.50;56.70;;;;;;4972551;28;20405;-67
2023/11/28 05:30:13;;;;;;;1.50;1.20;;;19.50;56.70;;;;;;4974711;28;20257;-67
2023/11/28 05:32:38;;;;;;;1.70;1.30;;;19.50;56.70;;;;;;4974795;28;20174;-67
2023/11/28 05:35:05;;;;;;;2.37;1.80;;;19.50;56.70;;;;;;4974750;28;20448;-67
2023/11/28 05:37:31;;;;;;;2.00;1.23;;;19.50;56.70;;;;;;4974991;28;20201;-67
2023/11/28 05:39:58;;;;;;;1.40;1.07;;;19.50;57.20;;;;;;4974761;28;20779;-67
2023/11/28 05:42:23;;;;;;;1.80;1.30;;;19.50;56.70;;;;;;4974626;28;20645;-66
2023/11/28 05:44:49;;;;;;;1.40;1.03;;;19.50;56.70;;;;;;4974659;28;20442;-67
2023/11/28 05:47:14;;;;;;;1.73;1.37;;;19.50;56.70;;;;;;4974428;28;20182;-67
2023/11/28 05:49:40;;;;;;;1.80;1.70;;;19.50;56.70;;;;;;4974459;28;20181;-67
2023/11/28 05:52:06;;;;;;;1.70;1.30;;;19.50;56.70;;;;;;4973095;28;20641;-67
2023/11/28 05:54:32;;;;;;;3.97;1.70;;;19.50;56.70;;;;;;4974313;28;20276;-67
2023/11/28 05:56:57;;;;;;;2.47;1.20;;;19.50;56.70;;;;;;4974356;28;20176;-67
2023/11/28 05:59:23;;;;;;;4.40;1.43;;;19.50;56.70;;;;;;4974330;28;20185;-67
2023/11/28 06:02:00;;;;;;;2.60;1.80;;;19.50;56.70;;;;;;4974213;28;20178;-67
2023/11/28 06:04:26;;;;;;;1.60;1.20;;;19.50;56.70;;;;;;4974140;28;20205;-67
2023/11/28 06:06:52;;;;;;;1.50;1.40;;;19.50;56.70;;;;;;4974195;28;20405;-67
2023/11/28 06:09:17;;;;;;;1.80;1.40;;;19.50;56.70;;;;;;4974113;28;20427;-67
2023/11/28 06:11:43;;;;;;;1.80;1.43;;;19.50;56.70;;;;;;4974059;28;20587;-67
2023/11/28 06:14:09;;;;;;;2.73;1.30;;;19.50;56.70;;;;;;4973956;28;20802;-67
2023/11/28 06:16:34;;;;;;;2.10;1.60;;;19.50;56.70;;;;;;4974010;28;20182;-67
2023/11/28 06:19:00;;;;;;;1.73;1.40;;;19.50;56.70;;;;;;4973842;28;20691;-65
2023/11/28 06:21:25;;;;;;;2.73;1.53;;;19.50;56.70;;;;;;4973887;28;20200;-67
2023/11/28 06:23:51;;;;;;;1.90;1.10;;;19.50;56.70;;;;;;4973933;28;20716;-65
2023/11/28 06:26:17;;;;;;;2.03;1.33;;;19.50;56.70;;;;;;4973714;28;20260;-66
2023/11/28 06:28:42;;;;;;;1.93;1.40;;;19.50;56.70;;;;;;4973283;28;20249;-67
2023/11/28 06:31:08;;;;;;;2.30;1.20;;;19.50;56.70;;;;;;4972706;28;20216;-67
2023/11/28 06:33:34;;;;;;;1.93;1.27;;;19.50;56.80;;;;;;4974376;28;20174;-66
2023/11/28 06:36:00;;;;;;;1.87;1.20;;;19.50;56.70;;;;;;4974325;28;20425;-66
2023/11/28 06:38:26;;;;;;;2.03;1.43;;;19.50;56.70;;;;;;4974343;28;20178;-67
2023/11/28 06:40:52;;;;;;;1.70;1.40;;;19.50;56.70;;;;;;4972954;28;20228;-67
2023/11/28 06:43:18;;;;;;;1.73;1.20;;;19.50;56.70;;;;;;4973529;28;20796;-65
2023/11/28 06:45:43;;;;;;;1.53;1.30;;;19.50;56.70;;;;;;4973403;28;20444;-67
2023/11/28 06:48:09;;;;;;;3.07;1.60;;;19.60;56.80;;;;;;4973444;28;20779;-67
2023/11/28 06:50:35;;;;;;;1.90;1.10;;;19.60;56.70;;;;;;4973575;28;20221;-66
2023/11/28 06:53:00;;;;;;;1.20;1.10;;;19.60;56.70;;;;;;4973422;28;20526;-67
2023/11/28 06:55:26;;;;;;;1.53;1.37;;;19.60;56.70;;;;;;4973276;28;20266;-67
2023/11/28 06:57:52;;;;;;;1.40;1.20;;;19.60;56.70;;;;;;4973295;28;20189;-67
2023/11/28 07:00:17;;;;;;;1.50;1.20;;;19.60;56.70;;;;;;4973303;28;20228;-67
2023/11/28 07:02:43;;;;;;;1.97;1.23;;;19.60;56.70;;;;;;4973270;28;20931;-66
2023/11/28 07:05:09;;;;;;;1.87;1.37;;;19.60;56.60;;;;;;4973065;28;20197;-67
2023/11/28 07:07:34;;;;;;;1.37;1.17;;;19.70;56.70;;;;;;4973391;28;20279;-66
2023/11/28 07:10:00;;;;;;;1.40;1.20;;;19.70;56.70;;;;;;4973013;28;20243;-66
2023/11/28 07:12:26;;;;;;;1.43;1.33;;;19.70;56.60;;;;;;4973114;28;20180;-67
2023/11/28 07:14:51;;;;;;;1.60;1.10;;;19.70;56.60;;;;;;4973058;28;20680;-65
2023/11/28 07:17:17;;;;;;;1.70;1.30;;;19.70;56.60;;;;;;4973228;28;20182;-66
2023/11/28 07:19:44;;;;;;;1.40;1.30;;;19.70;56.60;;;;;;4972930;28;20939;-66
2023/11/28 07:22:10;;;;;;;2.33;1.70;;;19.70;56.60;;;;;;4972980;28;20437;-66
2023/11/28 07:24:36;;;;;;;1.37;1.07;;;19.70;56.60;;;;;;4972860;28;20916;-66
2023/11/28 07:27:03;;;;;;;1.20;1.00;;;19.70;56.60;;;;;;4972663;28;20190;-66
2023/11/28 07:29:29;;;;;;;2.73;1.20;;;19.80;56.60;;;;;;4972788;28;20423;-66
2023/11/28 07:31:55;;;;;;;2.30;1.10;;;19.80;56.60;;;;;;4972852;28;20474;-67
2023/11/28 07:34:20;;;;;;;1.90;1.43;;;19.80;56.60;;;;;;4972576;28;20425;-67
2023/11/28 07:36:47;;;;;;;1.67;1.17;;;19.80;56.60;;;;;;4972665;28;20177;-67
2023/11/28 07:39:14;;;;;;;1.87;1.30;;;19.80;56.60;;;;;;4972558;28;20181;-67
2023/11/28 07:41:40;;;;;;;1.43;1.10;;;19.80;56.60;;;;;;4972532;28;20445;-67
2023/11/28 07:44:05;;;;;;;1.70;1.30;;;19.80;56.60;;;;;;4972331;28;20448;-67
2023/11/28 07:46:31;;;;;;;3.50;1.30;;;19.80;56.60;;;;;;4972358;28;20886;-67
2023/11/28 07:48:58;;;;;;;2.03;1.10;;;19.80;56.60;;;;;;4972354;28;20170;-66
2023/11/28 07:51:24;;;;;;;2.57;1.60;;;19.80;56.60;;;;;;4971951;28;20458;-67
2023/11/28 07:53:49;;;;;;;1.20;1.10;;;19.80;56.60;;;;;;4972300;28;20417;-67
2023/11/28 07:56:17;;;;;;;1.97;1.53;;;19.80;56.60;;;;;;4972180;28;20197;-67
2023/11/28 07:58:42;;;;;;;2.10;1.67;;;19.80;56.60;;;;;;4972137;28;20257;-67
2023/11/28 08:01:08;;;;;;;2.63;1.50;;;19.80;56.60;;;;;;4972108;28;20496;-67
2023/11/28 08:03:34;;;;;;;2.30;1.30;;;19.80;56.70;;;;;;4972108;28;20186;-67
2023/11/28 08:06:02;;;;;;;2.73;1.37;;;19.80;56.60;;;;;;4971976;28;20216;-67
2023/11/28 08:08:27;;;;;;;1.97;1.40;;;19.80;56.60;;;;;;4971972;28;20173;-67
2023/11/28 08:10:53;;;;;;;2.90;1.47;;;19.80;56.60;;;;;;4971876;28;20452;-67
2023/11/28 08:13:19;;;;;;;2.10;1.50;;;19.80;56.60;;;;;;4971913;28;20485;-67
2023/11/28 08:15:44;;;;;;;1.77;1.10;;;19.80;56.70;;;;;;4971852;28;20731;-66
2023/11/28 08:18:11;;;;;;;2.10;1.33;;;19.80;56.60;;;;;;4971813;28;20417;-67
2023/11/28 08:20:37;;;;;;;1.43;1.10;;;19.80;56.60;;;;;;4972063;28;20174;-67
2023/11/28 08:23:02;;;;;;;1.30;1.10;;;19.80;56.70;;;;;;4971623;28;20587;-67
2023/11/28 08:25:28;;;;;;;2.60;1.47;;;19.80;56.60;;;;;;4971602;28;20213;-66
2023/11/28 08:27:53;;;;;;;2.40;1.23;;;19.80;56.70;;;;;;4971991;28;20177;-67
2023/11/28 08:30:19;;;;;;;1.47;1.00;;;19.80;56.70;;;;;;4970154;28;20182;-67
2023/11/28 08:32:44;;;;;;;1.37;1.20;;;19.80;56.70;;;;;;4971565;28;20177;-66
2023/11/28 08:35:11;;;;;;;2.00;1.60;;;19.80;56.70;;;;;;4971578;28;20193;-67
2023/11/28 08:37:36;;;;;;;1.93;1.00;;;19.80;56.70;;;;;;4970197;28;20170;-67
2023/11/28 08:40:02;;;;;;;1.60;1.43;;;19.80;56.70;;;;;;4971481;28;20500;-67
2023/11/28 08:42:28;;;;;;;2.13;0.93;;;19.80;56.70;;;;;;4970282;28;20174;-67
2023/11/28 08:44:54;;;;;;;1.97;1.10;;;19.80;56.70;;;;;;4971299;28;20773;-68
2023/11/28 08:47:19;;;;;;;1.83;1.40;;;19.80;56.70;;;;;;4971385;28;20213;-67
2023/11/28 08:49:46;;;;;;;1.33;1.23;;;19.80;56.70;;;;;;4971320;28;20205;-67
2023/11/28 08:52:11;;;;;;;2.10;1.40;;;19.80;56.70;;;;;;4969974;28;20209;-67
2023/11/28 08:54:44;;;;;;;1.90;1.37;;;19.80;56.70;;;;;;4971579;28;20435;-67
2023/11/28 08:57:10;;;;;;;2.00;1.23;;;19.80;56.80;;;;;;4971294;28;20240;-67
2023/11/28 08:59:37;;;;;;;1.33;1.00;;;19.80;56.70;;;;;;4971473;28;20766;-67
2023/11/28 09:02:03;;;;;;;2.13;1.13;;;19.80;56.70;;;;;;4971572;28;20997;-67
2023/11/28 09:04:29;;;;;;;1.67;1.30;;;19.80;56.70;;;;;;4975904;28;20472;-67
2023/11/28 09:06:54;;;;;;;1.77;1.40;;;19.80;56.80;;;;;;4975231;28;20182;-67
2023/11/28 09:09:21;;;;;;;3.70;1.83;;;19.80;56.70;;;;;;4975218;28;20173;-66
2023/11/28 09:11:46;;;;;;;1.60;1.10;;;19.80;56.80;;;;;;4973811;28;20224;-67
2023/11/28 09:14:12;;;;;;;2.13;1.53;;;19.80;56.70;;;;;;4974981;28;20916;-67
2023/11/28 09:16:37;;;;;;;2.20;1.30;;;19.80;56.80;;;;;;4974876;28;20173;-66
2023/11/28 09:19:03;;;;;;;1.90;1.20;;;19.80;56.80;;;;;;4974952;28;20252;-66
2023/11/28 09:21:28;;;;;;;1.67;1.00;;;19.80;56.80;;;;;;4975004;28;20184;-66
2023/11/28 09:23:54;;;;;;;1.40;1.20;;;19.80;56.80;;;;;;4974953;28;20190;-66
2023/11/28 09:26:20;;;;;;;1.60;1.00;;;19.80;56.80;;;;;;4974834;28;20194;-66
2023/11/28 09:28:45;;;;;;;2.40;1.37;;;19.80;56.70;;;;;;4974841;28;20170;-66
2023/11/28 09:31:12;;;;;;;1.30;1.00;;;19.80;56.80;;;;;;4974823;28;20209;-66
2023/11/28 09:33:38;;;;;;;1.53;1.43;;;19.80;56.80;;;;;;4974743;28;20292;-66
2023/11/28 09:36:03;;;;;;;1.50;1.00;;;19.80;56.70;;;;;;4974618;28;20994;-66
2023/11/28 09:38:31;;;;;;;1.67;1.17;;;19.80;56.80;;;;;;4999572;28;20206;-66
2023/11/28 09:40:57;;;;;;;1.63;1.23;;;19.80;56.70;;;;;;5014062;28;20181;-66
2023/11/28 09:43:25;;;;;;;1.33;1.00;;;19.80;56.70;;;;;;5013964;28;20829;-66
2023/11/28 09:46:00;;;;;;;3.10;1.07;;;19.80;56.70;;;;;;5013504;28;20757;-66
2023/11/28 09:48:28;;;;;;;1.17;1.07;;;19.80;56.70;;;;;;5013532;28;20383;-67
2023/11/28 09:50:55;;;;;;;1.77;1.17;;;19.80;56.70;;;;;;5013412;28;20458;-66
2023/11/28 09:53:24;;;;;;;1.70;1.40;;;19.80;56.70;;;;;;5013426;28;20445;-66
2023/11/28 09:55:51;;;;;;;2.13;1.20;;;19.70;56.70;;;;;;5013358;28;20489;-67
2023/11/28 09:58:20;;;;;;;1.53;1.00;;;19.70;56.70;;;;;;5013397;28;20417;-66
2023/11/28 10:00:45;;;;;;;1.43;1.10;;;19.70;56.70;;;;;;5013621;28;20519;-67
2023/11/28 10:03:11;;;;;;;2.13;1.40;;;19.80;56.70;;;;;;5013282;28;20498;-66
2023/11/28 10:05:38;;;;;;;1.93;1.30;;;19.70;56.70;;;;;;5012967;28;20232;-67
2023/11/28 10:08:06;;;;;;;1.50;1.20;;;19.70;56.70;;;;;;5011762;28;20419;-66
2023/11/28 10:10:36;;;;;;;1.20;0.90;;;19.70;56.70;;;;;;5012993;28;20553;-67
2023/11/28 10:13:02;;;;;;;1.00;0.90;;;19.70;56.80;;;;;;5011599;28;20450;-66
2023/11/28 10:15:28;;;;;;;1.17;1.00;;;19.70;56.80;;;;;;5012984;28;20431;-66
2023/11/28 10:17:55;;;;;;;1.33;1.00;;;19.70;56.80;;;;;;5012999;28;20442;-66
2023/11/28 10:20:21;;;;;;;2.40;1.00;;;19.70;56.80;;;;;;5013270;28;20242;-66
2023/11/28 10:22:51;;;;;;;1.40;1.00;;;19.70;56.80;;;;;;5012919;28;20502;-66
2023/11/28 10:25:19;;;;;;;1.40;0.90;;;19.80;56.80;;;;;;5012795;28;20454;-66
2023/11/28 10:27:46;;;;;;;1.80;1.23;;;19.80;56.80;;;;;;5011427;28;20427;-67
2023/11/28 10:30:24;;;;;;;2.00;1.37;;;19.80;56.80;;;;;;5012928;28;20427;-67
2023/11/28 10:32:49;;;;;;;1.27;0.97;;;19.80;56.70;;;;;;5013063;28;20435;-67
2023/11/28 10:35:16;;;;;;;1.83;1.17;;;19.80;56.70;;;;;;5012564;28;20865;-67
2023/11/28 10:37:42;;;;;;;1.87;1.27;;;19.80;56.70;;;;;;5012700;28;20239;-67
2023/11/28 10:40:18;;;;;;;1.70;1.20;;;19.80;56.70;;;;;;5012617;28;20423;-65
2023/11/28 10:42:44;;;;;;;1.37;1.13;;;19.80;56.70;;;;;;5012587;28;21207;-67
2023/11/28 10:45:12;;;;;;;1.73;1.10;;;19.80;56.70;;;;;;5012536;28;20447;-66
2023/11/28 10:47:38;;;;;;;1.30;1.03;;;19.80;56.70;;;;;;5012512;28;20415;-66
2023/11/28 10:50:06;;;;;;;1.60;1.50;;;19.80;56.70;;;;;;5012428;28;20963;-66
2023/11/28 10:52:36;;;;;;;1.53;1.03;;;19.80;56.70;;;;;;5012613;28;20497;-66
2023/11/28 10:55:08;;;;;;;1.60;1.07;;;19.90;56.90;;;;;;5012478;28;20467;-66
2023/11/28 10:57:49;;;;;;;1.40;1.30;;;19.80;56.80;;;;;;5012276;28;20427;-66
2023/11/28 11:00:21;;;;;;;1.77;1.20;;;19.80;56.80;;;;;;5012229;28;20404;-66
2023/11/28 11:02:48;;;;;;;1.00;0.80;;;19.80;56.80;;;;;;5012146;28;20430;-67
2023/11/28 11:05:14;;;;;;;1.67;1.10;;;19.80;56.80;;;;;;5012431;28;21077;-67
2023/11/28 11:07:40;;;;;;;1.20;0.90;;;19.90;56.90;;;;;;5012237;28;20888;-67
2023/11/28 11:10:08;;;;;;;1.50;1.40;;;19.80;56.80;;;;;;5012000;28;20503;-66
2023/11/28 11:12:37;;;;;;;1.30;0.97;;;19.80;56.80;;;;;;5011863;28;20168;-66
2023/11/28 11:15:34;;;;;;;1.77;1.13;;;19.90;56.90;;;;;;5011880;28;20415;-67
2023/11/28 11:18:11;;;;;;;3.03;1.40;;;19.90;56.90;;;;;;5011903;28;20941;-66
2023/11/28 11:20:39;;;;;;;1.20;1.10;;;19.80;56.80;;;;;;5011753;28;20801;-65
2023/11/28 11:23:07;;;;;;;1.60;1.27;;;19.80;56.80;;;;;;5011962;28;20853;-66
2023/11/28 11:25:43;;;;;;;1.80;1.20;;;19.90;57.00;;;;;;5011068;28;20505;-67
2023/11/28 11:28:09;;;;;;;2.23;1.40;;;19.80;56.80;;;;;;5011894;28;20878;-66
2023/11/28 11:30:39;;;;;;;1.60;1.00;;;19.80;56.90;;;;;;5011332;28;20463;-66
2023/11/28 11:33:10;;;;;;;1.53;1.13;;;19.80;56.90;;;;;;5011545;28;20404;-67
2023/11/28 11:36:08;;;;;;;1.30;1.13;;;19.80;56.80;;;;;;5011518;28;20870;-67
2023/11/28 11:38:35;;;;;;;0.93;0.80;;;19.90;57.00;;;;;;5011386;28;20403;-67
2023/11/28 11:41:03;;;;;;;2.77;1.10;;;19.80;56.90;;;;;;5010453;28;20498;-66
2023/11/28 11:43:33;;;;;;;2.13;1.30;;;19.80;56.90;;;;;;5011459;28;20423;-65
2023/11/28 11:46:27;;;;;;;1.40;1.00;;;19.80;56.90;;;;;;5011426;28;20442;-66
2023/11/28 11:48:53;;;;;;;1.50;1.20;;;19.80;56.90;;;;;;5009602;28;20423;-66
2023/11/28 11:51:19;;;;;;;2.40;1.33;;;19.80;56.90;;;;;;5011152;28;20466;-66
2023/11/28 11:53:45;;;;;;;1.47;1.07;;;19.80;56.90;;;;;;5011205;28;20414;-67
2023/11/28 11:56:11;;;;;;;1.33;1.00;;;19.80;56.90;;;;;;5011238;28;20431;-66
2023/11/28 11:58:37;;;;;;;1.37;1.00;;;19.80;56.90;;;;;;5011064;28;20168;-67
2023/11/28 12:01:04;;;;;;;1.93;1.00;;;19.80;56.90;;;;;;5011101;28;20207;-67
2023/11/28 12:03:29;;;;;;;1.37;1.00;;;19.80;56.90;;;;;;5011116;28;20559;-67
2023/11/28 12:05:59;;;;;;;1.30;1.10;;;19.80;56.90;;;;;;5010992;28;20432;-66
2023/11/28 12:08:25;;;;;;;1.40;1.00;;;19.80;56.90;;;;;;5010969;28;20176;-66
2023/11/28 12:11:08;;;;;;;1.57;0.93;;;19.80;56.90;;;;;;5010825;28;20548;-64
2023/11/28 12:13:34;;;;;;;1.30;0.90;;;19.80;56.90;;;;;;5010832;28;20789;-66
2023/11/28 12:16:02;;;;;;;1.63;1.40;;;19.80;56.90;;;;;;5010806;28;20434;-67
2023/11/28 12:18:27;;;;;;;1.10;0.80;;;19.80;56.90;;;;;;5009413;28;20172;-67
2023/11/28 12:20:53;;;;;;;1.53;1.07;;;19.80;56.90;;;;;;5010806;28;20426;-65
2023/11/28 12:23:18;;;;;;;1.50;1.27;;;19.80;56.90;;;;;;5010893;28;20176;-67
2023/11/28 12:25:44;;;;;;;1.50;1.10;;;19.80;56.90;;;;;;5010597;28;20219;-67
2023/11/28 12:28:10;;;;;;;1.40;0.97;;;19.80;56.90;;;;;;5010735;28;20226;-67
2023/11/28 12:30:36;;;;;;;2.30;1.00;;;19.80;56.90;;;;;;5010618;28;20284;-66
2023/11/28 12:33:02;;;;;;;1.53;1.20;;;19.80;56.90;;;;;;5010711;28;20176;-67
2023/11/28 12:35:28;;;;;;;1.40;0.97;;;19.80;56.90;;;;;;5010526;28;20427;-67
2023/11/28 12:37:55;;;;;;;1.27;1.00;;;19.80;56.90;;;;;;5009791;28;20177;-65
2023/11/28 12:40:22;;;;;;;1.47;1.10;;;19.80;56.90;;;;;;5010552;28;20473;-68
2023/11/28 12:42:48;;;;;;;1.30;0.90;;;19.80;56.90;;;;;;5011080;28;20905;-66
2023/11/28 12:45:17;;;;;;;1.93;1.10;;;19.80;56.90;;;;;;5010493;28;20435;-65